createdAt,value
2018-09-21T00:01:34.073Z,18.30
2018-09-21T00:04:07.320Z,18.40
2018-09-21T00:06:35.372Z,18.40
2018-09-21T00:09:04.132Z,18.40
2018-09-21T00:11:32.193Z,18.40
2018-09-21T00:14:01.095Z,18.40
2018-09-21T00:16:29.144Z,18.40
2018-09-21T00:18:57.196Z,18.50
2018-09-21T00:21:25.244Z,18.50
2018-09-21T00:23:53.304Z,18.50
2018-09-21T00:26:21.349Z,18.50
2018-09-21T00:28:49.414Z,18.50
2018-09-21T00:31:17.468Z,18.50
2018-09-21T00:33:45.520Z,18.50
2018-09-21T00:36:13.605Z,18.50
2018-09-21T00:38:41.665Z,18.40
2018-09-21T00:41:09.713Z,18.40
2018-09-21T00:43:37.781Z,18.40
2018-09-21T00:46:05.833Z,18.40
2018-09-21T00:48:34.149Z,18.30
2018-09-21T00:51:02.204Z,18.20
2018-09-21T00:53:30.259Z,18.20
2018-09-21T00:55:58.313Z,18.10
2018-09-21T00:58:26.360Z,18.10
2018-09-21T01:00:54.415Z,18.10
2018-09-21T01:03:22.471Z,18.00
2018-09-21T01:05:50.528Z,18.00
2018-09-21T01:08:18.584Z,18.00
2018-09-21T01:10:46.638Z,18.00
2018-09-21T01:13:14.685Z,17.90
2018-09-21T01:15:42.748Z,17.90
2018-09-21T01:18:10.821Z,17.90
2018-09-21T01:20:38.865Z,17.90
2018-09-21T01:23:06.933Z,17.90
2018-09-21T01:25:34.996Z,17.80
2018-09-21T01:28:03.045Z,17.70
2018-09-21T01:30:31.096Z,17.70
2018-09-21T01:32:59.170Z,17.60
2018-09-21T01:35:27.241Z,17.50
2018-09-21T01:37:55.302Z,17.50
2018-09-21T01:40:23.373Z,17.50
2018-09-21T01:42:51.425Z,17.40
2018-09-21T01:45:19.525Z,17.40
2018-09-21T01:47:47.585Z,17.40
2018-09-21T01:50:15.641Z,17.40
2018-09-21T01:52:43.698Z,17.40
2018-09-21T01:55:11.748Z,17.40
2018-09-21T01:57:39.792Z,17.50
2018-09-21T02:00:07.857Z,17.50
2018-09-21T02:02:35.920Z,17.50
2018-09-21T02:05:04.233Z,17.40
2018-09-21T02:07:32.276Z,17.40
2018-09-21T02:10:00.340Z,17.30
2018-09-21T02:12:28.389Z,17.20
2018-09-21T02:14:56.466Z,17.10
2018-09-21T02:17:24.508Z,17.10
2018-09-21T02:19:52.585Z,17.00
2018-09-21T02:22:20.641Z,17.00
2018-09-21T02:24:48.686Z,16.90
2018-09-21T02:27:16.762Z,16.80
2018-09-21T02:29:44.816Z,16.80
2018-09-21T02:32:12.897Z,16.80
2018-09-21T02:34:40.961Z,16.80
2018-09-21T02:37:09.036Z,16.80
2018-09-21T02:39:37.093Z,16.70
2018-09-21T02:42:05.147Z,16.70
2018-09-21T02:44:33.207Z,16.60
2018-09-21T02:47:01.289Z,16.60
2018-09-21T02:49:29.342Z,16.60
2018-09-21T02:51:57.411Z,16.60
2018-09-21T02:54:25.453Z,16.60
2018-09-21T02:56:53.520Z,16.60
2018-09-21T02:59:21.591Z,16.60
2018-09-21T03:01:49.663Z,16.60
2018-09-21T03:04:17.713Z,16.60
2018-09-21T03:06:45.856Z,16.60
2018-09-21T03:09:13.926Z,16.60
2018-09-21T03:11:41.999Z,16.50
2018-09-21T03:14:10.053Z,16.50
2018-09-21T03:16:38.126Z,16.50
2018-09-21T03:19:06.184Z,16.40
2018-09-21T03:21:34.245Z,16.40
2018-09-21T03:24:02.303Z,16.30
2018-09-21T03:26:30.362Z,16.30
2018-09-21T03:28:58.644Z,16.30
2018-09-21T03:31:26.727Z,16.30
2018-09-21T03:33:54.778Z,16.20
2018-09-21T03:36:22.853Z,16.20
2018-09-21T03:38:50.906Z,16.20
2018-09-21T03:41:18.957Z,16.20
2018-09-21T03:43:47.009Z,16.20
2018-09-21T03:46:15.055Z,16.20
2018-09-21T03:48:43.108Z,16.20
2018-09-21T03:51:11.161Z,16.20
2018-09-21T03:53:39.209Z,16.20
2018-09-21T03:56:07.269Z,16.20
2018-09-21T03:58:35.329Z,16.20
2018-09-21T04:01:03.395Z,16.20
2018-09-21T04:03:31.447Z,16.20
2018-09-21T04:05:59.488Z,16.30
2018-09-21T04:08:27.545Z,16.30
2018-09-21T04:13:32.716Z,16.30
2018-09-21T04:16:00.801Z,16.40
2018-09-21T04:18:28.877Z,16.40
2018-09-21T04:20:56.927Z,16.40
2018-09-21T04:23:25.002Z,16.40
2018-09-21T04:25:53.060Z,16.40
2018-09-21T04:28:21.157Z,16.40
2018-09-21T04:30:49.189Z,16.40
2018-09-21T04:33:17.421Z,16.40
2018-09-21T04:35:45.480Z,16.40
2018-09-21T04:38:13.532Z,16.30
2018-09-21T04:40:41.594Z,16.30
2018-09-21T04:43:09.656Z,16.30
2018-09-21T04:45:37.736Z,16.30
2018-09-21T04:48:05.807Z,16.30
2018-09-21T04:50:34.229Z,16.20
2018-09-21T04:53:02.288Z,16.20
2018-09-21T04:55:30.343Z,16.10
2018-09-21T04:57:58.400Z,16.20
2018-09-21T05:00:26.521Z,16.10
2018-09-21T05:02:54.580Z,16.20
2018-09-21T05:05:22.644Z,16.20
2018-09-21T05:07:50.703Z,16.20
2018-09-21T05:10:18.761Z,16.30
2018-09-21T05:12:46.820Z,16.30
2018-09-21T05:15:14.895Z,16.40
2018-09-21T05:17:42.953Z,16.40
2018-09-21T05:20:11.019Z,16.40
2018-09-21T05:22:39.068Z,16.40
2018-09-21T05:25:07.121Z,16.40
2018-09-21T05:27:35.199Z,16.50
2018-09-21T05:30:03.244Z,16.50
2018-09-21T05:32:31.308Z,16.50
2018-09-21T05:34:59.403Z,16.50
2018-09-21T05:37:27.421Z,16.50
2018-09-21T05:39:55.488Z,16.60
2018-09-21T05:42:23.544Z,16.60
2018-09-21T05:44:51.593Z,16.60
2018-09-21T05:47:19.644Z,16.70
2018-09-21T05:49:47.730Z,16.80
2018-09-21T05:52:15.789Z,16.90
2018-09-21T05:54:43.855Z,17.10
2018-09-21T05:57:11.913Z,17.20
2018-09-21T05:59:39.973Z,17.30
2018-09-21T06:02:08.333Z,17.30
2018-09-21T06:04:37.366Z,17.40
2018-09-21T06:07:05.417Z,17.50
2018-09-21T06:09:33.469Z,17.60
2018-09-21T06:12:01.523Z,17.80
2018-09-21T06:14:29.583Z,18.10
2018-09-21T06:16:57.645Z,18.50
2018-09-21T06:19:25.730Z,19.00
2018-09-21T06:21:53.759Z,19.40
2018-09-21T06:24:21.812Z,19.70
2018-09-21T06:26:49.862Z,20.00
2018-09-21T06:29:17.946Z,20.30
2018-09-21T06:31:46.006Z,20.40
2018-09-21T06:34:14.352Z,20.30
2018-09-21T06:36:42.377Z,20.30
2018-09-21T06:39:11.624Z,20.40
2018-09-21T06:41:39.917Z,20.30
2018-09-21T06:44:08.321Z,20.30
2018-09-21T06:46:36.379Z,20.30
2018-09-21T06:49:04.449Z,20.30
2018-09-21T06:51:32.504Z,20.40
2018-09-21T06:54:00.558Z,20.40
2018-09-21T06:56:28.613Z,20.50
2018-09-21T06:58:56.685Z,20.50
2018-09-21T07:01:24.809Z,20.60
2018-09-21T07:03:52.809Z,20.70
2018-09-21T07:06:20.860Z,20.90
2018-09-21T07:08:48.912Z,21.00
2018-09-21T07:11:16.977Z,21.20
2018-09-21T07:13:45.029Z,21.50
2018-09-21T07:16:13.096Z,21.70
2018-09-21T07:18:41.149Z,21.60
2018-09-21T07:21:09.218Z,21.50
2018-09-21T07:23:37.252Z,21.30
2018-09-21T07:26:05.316Z,21.30
2018-09-21T07:28:33.456Z,21.20
2018-09-21T07:31:01.562Z,21.20
2018-09-21T07:33:29.580Z,21.20
2018-09-21T07:35:57.646Z,21.20
2018-09-21T07:38:25.692Z,21.10
2018-09-21T07:40:53.752Z,21.10
2018-09-21T07:43:21.801Z,21.20
2018-09-21T07:45:49.858Z,21.20
2018-09-21T07:48:17.904Z,21.30
2018-09-21T07:50:45.987Z,21.40
2018-09-21T07:53:14.064Z,21.50
2018-09-21T07:55:42.138Z,21.60
2018-09-21T07:58:10.190Z,21.80
2018-09-21T08:00:38.248Z,21.90
2018-09-21T08:03:06.308Z,22.20
2018-09-21T08:05:35.216Z,22.40
2018-09-21T08:08:04.832Z,22.60
2018-09-21T08:10:32.895Z,23.10
2018-09-21T08:13:01.529Z,23.50
2018-09-21T08:15:30.128Z,23.60
2018-09-21T08:17:58.208Z,23.70
2018-09-21T08:20:26.696Z,23.80
2018-09-21T08:22:54.753Z,23.70
2018-09-21T08:25:22.828Z,23.80
2018-09-21T08:27:50.960Z,23.80
2018-09-21T08:30:19.752Z,23.90
2018-09-21T08:32:47.820Z,23.70
2018-09-21T08:35:15.870Z,23.60
2018-09-21T08:37:43.933Z,23.50
2018-09-21T08:40:11.990Z,23.40
2018-09-21T08:42:40.060Z,23.20
2018-09-21T08:45:09.139Z,23.10
2018-09-21T08:47:37.220Z,23.10
2018-09-21T08:50:06.424Z,23.00
2018-09-21T08:52:34.496Z,23.00
2018-09-21T08:55:02.609Z,23.00
2018-09-21T08:57:30.618Z,23.00
2018-09-21T08:59:58.664Z,23.00
2018-09-21T09:02:26.718Z,23.00
2018-09-21T09:04:55.001Z,23.00
2018-09-21T09:07:23.085Z,23.00
2018-09-21T09:09:51.143Z,23.00
2018-09-21T09:12:19.203Z,23.10
2018-09-21T09:14:47.264Z,23.20
2018-09-21T09:17:15.325Z,23.20
2018-09-21T09:19:43.372Z,23.20
2018-09-21T09:22:11.430Z,23.20
2018-09-21T09:24:39.495Z,23.20
2018-09-21T09:27:07.544Z,23.20
2018-09-21T09:29:35.588Z,23.30
2018-09-21T09:32:03.652Z,23.40
2018-09-21T09:34:31.708Z,23.40
2018-09-21T09:36:59.847Z,23.40
2018-09-21T09:39:27.840Z,23.30
2018-09-21T09:41:55.889Z,23.30
2018-09-21T09:44:23.944Z,23.40
2018-09-21T09:46:51.997Z,23.40
2018-09-21T09:49:20.084Z,23.50
2018-09-21T09:51:48.106Z,23.60
2018-09-21T09:54:16.162Z,23.60
2018-09-21T09:56:44.222Z,23.70
2018-09-21T09:59:12.281Z,23.70
2018-09-21T10:01:40.333Z,23.70
2018-09-21T10:04:15.020Z,23.70
2018-09-21T10:06:43.067Z,23.80
2018-09-21T10:09:11.893Z,23.90
2018-09-21T10:11:40.657Z,24.00
2018-09-21T10:14:09.161Z,24.10
2018-09-21T10:16:37.233Z,24.20
2018-09-21T10:19:05.295Z,24.20
2018-09-21T10:21:33.341Z,24.20
2018-09-21T10:24:01.434Z,24.30
2018-09-21T10:26:29.490Z,24.10
2018-09-21T10:28:57.557Z,24.10
2018-09-21T10:31:25.629Z,24.00
2018-09-21T10:33:53.810Z,23.90
2018-09-21T10:36:21.788Z,23.90
2018-09-21T10:38:49.893Z,23.90
2018-09-21T10:41:17.934Z,23.90
2018-09-21T10:43:46.285Z,23.90
2018-09-21T10:46:14.341Z,23.90
2018-09-21T10:48:42.404Z,24.00
2018-09-21T10:51:10.465Z,23.90
2018-09-21T10:53:38.736Z,23.90
2018-09-21T10:56:06.776Z,23.90
2018-09-21T10:58:34.901Z,23.90
2018-09-21T11:01:02.906Z,24.00
2018-09-21T11:03:30.961Z,24.00
2018-09-21T11:05:59.002Z,24.10
2018-09-21T11:08:27.057Z,24.10
2018-09-21T11:10:55.159Z,24.10
2018-09-21T11:13:23.242Z,24.00
2018-09-21T11:15:51.296Z,24.00
2018-09-21T11:18:19.362Z,24.00
2018-09-21T11:20:47.477Z,24.00
2018-09-21T11:23:15.543Z,24.00
2018-09-21T11:25:43.594Z,24.10
2018-09-21T11:28:11.663Z,24.10
2018-09-21T11:30:39.726Z,24.10
2018-09-21T11:33:07.826Z,24.20
2018-09-21T11:35:35.867Z,24.30
2018-09-21T11:38:03.941Z,24.30
2018-09-21T11:40:32.004Z,24.30
2018-09-21T11:43:00.052Z,24.30
2018-09-21T11:45:28.249Z,24.30
2018-09-21T11:47:56.300Z,24.30
2018-09-21T11:50:24.369Z,24.40
2018-09-21T11:52:52.427Z,24.40
2018-09-21T11:55:20.522Z,24.40
2018-09-21T11:57:48.581Z,24.50
2018-09-21T12:00:16.708Z,24.40
2018-09-21T12:02:44.708Z,24.40
2018-09-21T12:05:12.765Z,24.40
2018-09-21T12:07:40.812Z,24.40
2018-09-21T12:10:08.882Z,24.40
2018-09-21T12:12:36.985Z,24.30
2018-09-21T12:15:05.657Z,24.20
2018-09-21T12:17:33.704Z,24.10
2018-09-21T12:20:01.774Z,24.20
2018-09-21T12:22:29.877Z,24.20
2018-09-21T12:24:57.884Z,24.20
2018-09-21T12:27:25.940Z,24.20
2018-09-21T12:29:54.130Z,24.20
2018-09-21T12:32:22.193Z,24.10
2018-09-21T12:34:50.252Z,24.10
2018-09-21T12:37:18.309Z,23.90
2018-09-21T12:39:46.369Z,23.90
2018-09-21T12:42:14.429Z,23.70
2018-09-21T12:44:42.540Z,23.60
2018-09-21T12:47:10.540Z,23.50
2018-09-21T12:49:39.190Z,23.50
2018-09-21T12:52:07.906Z,23.40
2018-09-21T12:54:36.092Z,23.30
2018-09-21T12:57:04.178Z,23.20
2018-09-21T12:59:32.413Z,23.20
2018-09-21T13:02:00.470Z,23.00
2018-09-21T13:04:28.533Z,22.80
2018-09-21T13:06:56.578Z,22.70
2018-09-21T13:09:24.676Z,22.60
2018-09-21T13:11:52.757Z,22.50
2018-09-21T13:14:20.822Z,22.50
2018-09-21T13:16:48.872Z,22.00
2018-09-21T13:19:16.952Z,21.20
2018-09-21T13:21:45.214Z,20.70
2018-09-21T13:24:13.280Z,20.20
2018-09-21T13:26:42.263Z,19.70
2018-09-21T13:29:10.304Z,19.10
2018-09-21T13:31:38.378Z,18.80
2018-09-21T13:34:06.460Z,18.60
2018-09-21T13:36:35.254Z,18.30
2018-09-21T13:39:04.409Z,18.00
2018-09-21T13:41:32.463Z,17.70
2018-09-21T13:44:00.504Z,17.60
2018-09-21T13:46:28.556Z,17.50
2018-09-21T13:48:56.608Z,17.40
2018-09-21T13:51:24.670Z,17.20
2018-09-21T13:53:52.720Z,17.20
2018-09-21T13:56:20.784Z,17.20
2018-09-21T13:58:48.839Z,17.10
2018-09-21T14:01:16.893Z,17.10
2018-09-21T14:03:44.938Z,17.10
2018-09-21T14:06:13.004Z,17.00
2018-09-21T14:08:41.058Z,16.90
2018-09-21T14:11:09.125Z,16.90
2018-09-21T14:13:37.181Z,16.90
2018-09-21T14:16:05.604Z,16.90
2018-09-21T14:18:33.641Z,16.80
2018-09-21T14:21:01.697Z,16.80
2018-09-21T14:23:29.762Z,16.70
2018-09-21T14:25:57.825Z,16.70
2018-09-21T14:28:25.872Z,16.50
2018-09-21T14:30:53.933Z,16.50
2018-09-21T14:33:21.998Z,16.40
2018-09-21T14:35:50.071Z,16.40
2018-09-21T14:38:18.101Z,16.30
2018-09-21T14:40:46.165Z,16.30
2018-09-21T14:43:14.270Z,16.30
2018-09-21T14:45:42.309Z,16.30
2018-09-21T14:48:10.352Z,16.30
2018-09-21T14:50:38.478Z,16.30
2018-09-21T14:53:06.475Z,16.30
2018-09-21T14:55:34.517Z,16.40
2018-09-21T14:58:02.574Z,16.40
2018-09-21T15:00:30.617Z,16.50
2018-09-21T15:02:58.673Z,16.50
2018-09-21T15:05:26.728Z,16.60
2018-09-21T15:07:54.785Z,16.60
2018-09-21T15:10:22.841Z,16.60
2018-09-21T15:12:50.921Z,16.60
2018-09-21T15:15:18.991Z,16.60
2018-09-21T15:17:47.042Z,16.70
2018-09-21T15:20:15.089Z,16.80
2018-09-21T15:22:43.145Z,16.90
2018-09-21T15:25:11.196Z,17.00
2018-09-21T15:27:39.273Z,17.00
2018-09-21T15:30:07.332Z,17.00
2018-09-21T15:32:35.402Z,17.00
2018-09-21T15:35:03.451Z,17.10
2018-09-21T15:37:31.505Z,17.20
2018-09-21T15:39:59.553Z,17.30
2018-09-21T15:42:27.641Z,17.40
2018-09-21T15:44:55.698Z,17.60
2018-09-21T15:47:23.758Z,17.80
2018-09-21T15:49:51.813Z,18.10
2018-09-21T15:52:19.874Z,18.30
2018-09-21T15:54:47.924Z,18.50
2018-09-21T15:57:15.986Z,18.40
2018-09-21T15:59:44.049Z,18.40
2018-09-21T16:02:12.113Z,18.40
2018-09-21T16:04:40.157Z,18.40
2018-09-21T16:07:08.288Z,18.40
2018-09-21T16:09:36.267Z,18.50
2018-09-21T16:12:04.323Z,18.50
2018-09-21T16:14:32.385Z,18.60
2018-09-21T16:17:01.400Z,18.50
2018-09-21T16:19:29.465Z,18.40
2018-09-21T16:21:57.533Z,18.20
2018-09-21T16:24:25.667Z,18.00
2018-09-21T16:26:53.652Z,17.90
2018-09-21T16:29:21.721Z,17.70
2018-09-21T16:31:49.781Z,17.50
2018-09-21T16:34:17.864Z,17.40
2018-09-21T16:36:46.021Z,17.30
2018-09-21T16:39:13.999Z,17.20
2018-09-21T16:41:42.145Z,17.20
2018-09-21T16:44:10.841Z,17.10
2018-09-21T16:46:38.889Z,17.00
2018-09-21T16:49:06.962Z,16.90
2018-09-21T16:51:35.039Z,16.80
2018-09-21T16:54:03.081Z,16.80
2018-09-21T16:56:31.139Z,16.70
2018-09-21T16:58:59.303Z,16.60
2018-09-21T17:01:27.249Z,16.50
2018-09-21T17:03:55.320Z,16.40
2018-09-21T17:06:23.369Z,16.40
2018-09-21T17:08:51.426Z,16.40
2018-09-21T17:11:19.535Z,16.30
2018-09-21T17:13:47.533Z,16.30
2018-09-21T17:16:15.584Z,16.30
2018-09-21T17:18:43.664Z,16.30
2018-09-21T17:21:11.733Z,16.20
2018-09-21T17:23:39.765Z,16.20
2018-09-21T17:26:07.832Z,16.20
2018-09-21T17:28:35.892Z,16.20
2018-09-21T17:31:03.952Z,16.20
2018-09-21T17:33:32.005Z,16.10
2018-09-21T17:36:00.061Z,16.10
2018-09-21T17:38:28.122Z,16.10
2018-09-21T17:40:56.178Z,16.10
2018-09-21T17:43:24.231Z,16.10
2018-09-21T17:45:52.304Z,16.10
2018-09-21T17:48:20.632Z,16.00
2018-09-21T17:50:48.698Z,16.00
2018-09-21T17:53:16.757Z,16.00
2018-09-21T17:55:44.816Z,16.00
2018-09-21T17:58:12.868Z,16.00
2018-09-21T18:00:40.923Z,15.90
2018-09-21T18:03:08.973Z,15.90
2018-09-21T18:05:37.041Z,15.90
2018-09-21T18:08:05.093Z,15.90
2018-09-21T18:10:33.145Z,15.80
2018-09-21T18:13:01.193Z,15.80
2018-09-21T18:15:29.709Z,15.80
2018-09-21T18:17:57.770Z,15.70
2018-09-21T18:20:25.844Z,15.60
2018-09-21T18:22:53.994Z,15.60
2018-09-21T18:25:21.941Z,15.60
2018-09-21T18:27:49.993Z,15.60
2018-09-21T18:30:18.049Z,15.60
2018-09-21T18:32:46.108Z,15.50
2018-09-21T18:35:14.160Z,15.50
2018-09-21T18:37:42.213Z,15.50
2018-09-21T18:40:10.278Z,15.50
2018-09-21T18:42:38.514Z,15.40
2018-09-21T18:45:07.190Z,15.40
2018-09-21T18:47:35.201Z,15.40
2018-09-21T18:50:03.285Z,15.40
2018-09-21T18:52:31.333Z,15.40
2018-09-21T18:54:59.385Z,15.40
2018-09-21T18:57:27.444Z,15.40
2018-09-21T18:59:55.498Z,15.30
2018-09-21T19:02:23.609Z,15.30
2018-09-21T19:04:51.620Z,15.20
2018-09-21T19:07:25.092Z,15.20
2018-09-21T19:09:53.136Z,15.20
2018-09-21T19:12:21.184Z,15.20
2018-09-21T19:14:49.225Z,15.20
2018-09-21T19:17:17.322Z,15.20
2018-09-21T19:19:45.332Z,15.20
2018-09-21T19:22:13.389Z,15.20
2018-09-21T19:24:41.437Z,15.10
2018-09-21T19:27:09.493Z,15.10
2018-09-21T19:29:37.559Z,15.00
2018-09-21T19:32:05.623Z,14.90
2018-09-21T19:34:33.683Z,14.80
2018-09-21T19:37:01.735Z,14.70
2018-09-21T19:39:29.785Z,14.60
2018-09-21T19:41:57.833Z,14.60
2018-09-21T19:44:25.885Z,14.50
2018-09-21T19:46:53.941Z,14.50
2018-09-21T19:49:21.980Z,14.40
2018-09-21T19:51:50.041Z,14.30
2018-09-21T19:54:18.088Z,14.30
2018-09-21T19:56:46.145Z,14.30
2018-09-21T19:59:14.200Z,14.20
2018-09-21T20:01:42.289Z,14.20
2018-09-21T20:04:10.342Z,14.10
2018-09-21T20:06:38.396Z,14.00
2018-09-21T20:09:08.097Z,13.90
2018-09-21T20:11:36.155Z,13.80
2018-09-21T20:14:04.216Z,13.70
2018-09-21T20:16:32.307Z,13.70
2018-09-21T20:19:00.324Z,13.70
2018-09-21T20:21:28.369Z,13.70
2018-09-21T20:23:56.434Z,13.80
2018-09-21T20:26:24.466Z,13.90
2018-09-21T20:28:53.537Z,13.90
2018-09-21T20:31:27.201Z,13.90
2018-09-21T20:33:55.256Z,14.00
2018-09-21T20:36:23.308Z,13.90
2018-09-21T20:38:51.381Z,13.90
2018-09-21T20:41:19.441Z,13.90
2018-09-21T20:43:47.532Z,13.90
2018-09-21T20:46:15.585Z,13.90
2018-09-21T20:48:43.636Z,13.80
2018-09-21T20:51:11.676Z,13.80
2018-09-21T20:53:39.728Z,13.80
2018-09-21T20:56:07.807Z,13.80
2018-09-21T20:58:35.865Z,13.90
2018-09-21T21:01:03.916Z,13.90
2018-09-21T21:03:31.977Z,13.80
2018-09-21T21:06:00.027Z,13.90
2018-09-21T21:08:28.071Z,13.80
2018-09-21T21:10:56.120Z,13.80
2018-09-21T21:13:24.208Z,13.80
2018-09-21T21:15:52.560Z,13.80
2018-09-21T21:18:20.858Z,13.70
2018-09-21T21:20:48.909Z,13.70
2018-09-21T21:23:16.956Z,13.60
2018-09-21T21:25:45.001Z,13.50
2018-09-21T21:28:13.066Z,13.50
2018-09-21T21:30:41.108Z,13.50
2018-09-21T21:33:09.172Z,13.40
2018-09-21T21:35:37.224Z,13.40
2018-09-21T21:38:05.297Z,13.30
2018-09-21T21:40:33.349Z,13.30
2018-09-21T21:43:01.396Z,13.20
2018-09-21T21:45:29.460Z,13.20
2018-09-21T21:47:57.504Z,13.20
2018-09-21T21:50:25.567Z,13.20
2018-09-21T21:52:53.618Z,13.20
2018-09-21T21:55:21.673Z,13.20
2018-09-21T21:57:49.712Z,13.10
2018-09-21T22:00:17.777Z,13.10
2018-09-21T22:02:45.920Z,13.10
2018-09-21T22:05:13.967Z,13.00
2018-09-21T22:07:42.028Z,13.00
2018-09-21T22:10:10.080Z,13.00
2018-09-21T22:12:43.564Z,13.00
2018-09-21T22:15:18.894Z,12.90
2018-09-21T22:17:47.789Z,12.80
2018-09-21T22:20:15.845Z,12.80
2018-09-21T22:22:43.896Z,12.80
2018-09-21T22:25:12.179Z,12.80
2018-09-21T22:27:40.637Z,12.70
2018-09-21T22:30:09.249Z,12.70
2018-09-21T22:32:37.837Z,12.60
2018-09-21T22:35:05.897Z,12.60
2018-09-21T22:37:33.953Z,12.50
2018-09-21T22:40:02.006Z,12.50
2018-09-21T22:42:30.080Z,12.50
2018-09-21T22:44:58.151Z,12.50
2018-09-21T22:47:26.176Z,12.50
2018-09-21T22:49:54.242Z,12.60
2018-09-21T22:52:22.293Z,12.60
2018-09-21T22:54:50.356Z,12.70
2018-09-21T22:57:18.392Z,12.70
2018-09-21T22:59:46.564Z,12.70
2018-09-21T23:02:14.621Z,12.70
2018-09-21T23:04:42.712Z,12.80
2018-09-21T23:07:10.761Z,12.80
2018-09-21T23:09:38.813Z,12.80
2018-09-21T23:12:07.180Z,12.80
2018-09-21T23:14:35.243Z,12.80
2018-09-21T23:17:03.296Z,12.80
2018-09-21T23:19:31.344Z,12.80
2018-09-21T23:21:59.428Z,12.80
2018-09-21T23:24:27.521Z,12.80
2018-09-21T23:26:55.620Z,12.80
2018-09-21T23:29:23.639Z,12.80
2018-09-21T23:31:51.763Z,12.80
2018-09-21T23:34:19.738Z,12.80
2018-09-21T23:36:47.787Z,12.80
2018-09-21T23:39:15.845Z,12.80
2018-09-21T23:41:43.884Z,12.70
2018-09-21T23:44:11.944Z,12.70
2018-09-21T23:46:39.989Z,12.70
2018-09-21T23:49:08.048Z,12.60
2018-09-21T23:51:36.103Z,12.60
2018-09-21T23:54:04.185Z,12.60
2018-09-21T23:56:32.249Z,12.60
2018-09-21T23:59:00.303Z,12.60
